Time;durP1;ratioP1;P1;durP2;ratioP2;P2;SDS_P1;SDS_P2;PMS_P1;PMS_P2;Temp;Humidity;BMP_temperature;BMP_pressure;BME280_temperature;BME280_humidity;BME280_pressure;Samples;Min_cycle;Max_cycle;Signal;HPM_P1;HPM_P2
2022/06/23 00:01:39;;;;;;;1.60;1.20;;;18.60;98.90;;;;;;5115985;28;20186;-41
2022/06/23 00:04:05;;;;;;;6.73;1.70;;;18.50;98.90;;;;;;5116599;28;20222;-39
2022/06/23 00:06:34;;;;;;;2.07;1.33;;;18.40;99.00;;;;;;5123863;28;20219;-40
2022/06/23 00:08:59;;;;;;;4.87;1.50;;;18.40;99.00;;;;;;5124715;28;20545;-40
2022/06/23 00:11:27;;;;;;;4.73;1.50;;;18.40;99.10;;;;;;5124417;28;20177;-39
2022/06/23 00:14:06;;;;;;;3.67;1.50;;;18.40;99.20;;;;;;5117601;28;20167;-41
2022/06/23 00:16:32;;;;;;;4.40;1.57;;;18.40;99.20;;;;;;5115863;28;20178;-41
2022/06/23 00:18:58;;;;;;;4.27;1.70;;;18.40;99.10;;;;;;5115743;28;20716;-40
2022/06/23 00:21:29;;;;;;;4.97;1.47;;;18.40;99.10;;;;;;5115157;28;20239;-40
2022/06/23 00:24:00;;;;;;;2.50;1.33;;;18.40;99.10;;;;;;5115337;28;20151;-42
2022/06/23 00:26:29;;;;;;;4.33;1.80;;;18.40;99.00;;;;;;5115131;28;20501;-42
2022/06/23 00:29:04;;;;;;;5.53;1.60;;;18.40;98.90;;;;;;5096595;28;20198;-41
2022/06/23 00:31:39;;;;;;;2.43;1.27;;;18.40;99.20;;;;;;5114971;28;20186;-43
2022/06/23 00:34:23;;;;;;;6.97;1.70;;;18.30;99.30;;;;;;5114898;28;20231;-40
2022/06/23 00:37:03;;;;;;;4.67;1.70;;;18.20;99.70;;;;;;5114893;28;20162;-41
2022/06/23 00:39:35;;;;;;;6.77;1.80;;;18.20;99.90;;;;;;5096744;28;20560;-40
2022/06/23 00:42:04;;;;;;;4.17;1.90;;;18.10;99.90;;;;;;5096878;28;20170;-40
2022/06/23 00:44:35;;;;;;;3.40;1.63;;;18.10;99.90;;;;;;5114866;28;20202;-40
2022/06/23 00:47:11;;;;;;;5.03;1.57;;;18.10;99.90;;;;;;5115119;28;20178;-41
2022/06/23 00:49:58;;;;;;;3.07;1.60;;;18.00;99.90;;;;;;5114755;28;20231;-41
2022/06/23 00:52:40;;;;;;;3.87;2.00;;;18.00;99.90;;;;;;5114824;28;20154;-40
2022/06/23 00:55:39;;;;;;;3.73;1.30;;;18.00;99.90;;;;;;5114574;28;20249;-41
2022/06/23 00:58:42;;;;;;;4.83;1.87;;;17.90;99.90;;;;;;5114833;28;20170;-40
2022/06/23 01:01:22;;;;;;;9.67;2.20;;;17.90;99.90;;;;;;5111686;28;20738;-41
2022/06/23 01:04:03;;;;;;;5.10;1.40;;;17.80;99.90;;;;;;5114758;28;20597;-40
2022/06/23 01:06:39;;;;;;;6.23;1.90;;;17.80;99.90;;;;;;5114610;28;20268;-40
2022/06/23 01:09:19;;;;;;;4.47;1.50;;;17.70;99.90;;;;;;5114534;28;20189;-41
2022/06/23 01:11:50;;;;;;;3.13;1.80;;;17.70;99.90;;;;;;5114653;28;20545;-40
2022/06/23 01:14:15;;;;;;;4.63;1.90;;;17.70;99.90;;;;;;5114340;28;20166;-41
2022/06/23 01:16:58;;;;;;;3.63;1.50;;;17.70;99.90;;;;;;5114830;28;20526;-40
2022/06/23 01:19:35;;;;;;;5.13;1.60;;;17.60;99.90;;;;;;5114787;28;20193;-43
2022/06/23 01:22:05;;;;;;;5.23;1.50;;;17.50;99.90;;;;;;5114478;28;20177;-42
2022/06/23 01:24:53;;;;;;;5.63;1.63;;;17.40;99.90;;;;;;5114609;28;20206;-41
2022/06/23 01:27:58;;;;;;;3.87;1.70;;;17.30;99.90;;;;;;5114671;28;20212;-42
2022/06/23 01:30:29;;;;;;;4.67;1.90;;;17.30;99.90;;;;;;5069029;28;20194;-42
2022/06/23 01:33:02;;;;;;;3.83;1.67;;;17.20;99.90;;;;;;5114211;28;20266;-41
2022/06/23 01:35:35;;;;;;;6.27;1.80;;;17.10;99.90;;;;;;5095933;28;20521;-44
2022/06/23 01:38:22;;;;;;;6.53;2.07;;;17.00;99.90;;;;;;5114504;28;20563;-42
2022/06/23 01:40:56;;;;;;;5.47;1.80;;;17.00;99.90;;;;;;5096044;28;20166;-41
2022/06/23 01:43:46;;;;;;;3.50;1.73;;;16.90;99.90;;;;;;5096079;28;20174;-41
2022/06/23 01:46:18;;;;;;;3.97;1.80;;;16.90;99.90;;;;;;5095853;28;20284;-43
2022/06/23 01:49:13;;;;;;;8.17;1.90;;;16.80;99.90;;;;;;5095805;28;20339;-43
2022/06/23 01:51:46;;;;;;;5.20;2.23;;;16.80;99.90;;;;;;5066374;28;20186;-40
2022/06/23 01:54:19;;;;;;;3.03;1.70;;;16.80;99.90;;;;;;5114803;28;20177;-41
2022/06/23 01:57:01;;;;;;;8.80;2.10;;;16.80;99.90;;;;;;5118559;28;20162;-43
2022/06/23 01:59:41;;;;;;;3.33;1.90;;;16.80;99.90;;;;;;5101162;28;20190;-40
2022/06/23 02:02:29;;;;;;;2.60;1.70;;;16.80;99.90;;;;;;5119731;28;20183;-42
2022/06/23 02:05:11;;;;;;;9.00;2.00;;;16.80;99.90;;;;;;5118671;28;20280;-41
2022/06/23 02:07:46;;;;;;;5.70;1.97;;;16.80;99.90;;;;;;5100656;28;20172;-42
2022/06/23 02:10:29;;;;;;;8.10;1.97;;;16.70;99.90;;;;;;5118052;28;20193;-44
2022/06/23 02:13:10;;;;;;;6.30;1.83;;;16.60;99.90;;;;;;5118119;28;20214;-41
2022/06/23 02:15:51;;;;;;;6.10;1.97;;;16.60;99.90;;;;;;5116981;28;20189;-42
2022/06/23 02:18:47;;;;;;;5.77;2.03;;;16.60;99.90;;;;;;5116819;28;20175;-42
2022/06/23 02:21:49;;;;;;;5.23;1.83;;;16.50;99.90;;;;;;5118634;28;20221;-40
2022/06/23 02:24:21;;;;;;;9.73;2.10;;;16.50;99.90;;;;;;5117855;28;20212;-40
2022/06/23 02:27:37;;;;;;;8.87;2.00;;;16.50;99.90;;;;;;5100298;28;20174;-39
2022/06/23 02:30:11;;;;;;;9.37;2.53;;;16.50;99.90;;;;;;5034704;28;20197;-39
2022/06/23 02:32:58;;;;;;;5.20;1.83;;;16.40;99.90;;;;;;5113284;28;20202;-39
2022/06/23 02:35:42;;;;;;;9.53;2.10;;;16.50;99.90;;;;;;5117246;28;20718;-41
2022/06/23 02:38:23;;;;;;;4.53;2.23;;;16.40;99.90;;;;;;5098781;28;20177;-40
2022/06/23 02:41:11;;;;;;;5.97;2.13;;;16.40;99.90;;;;;;5100017;28;20173;-40
2022/06/23 02:44:04;;;;;;;4.03;2.03;;;16.40;99.90;;;;;;5117333;28;20171;-40
2022/06/23 02:46:44;;;;;;;5.27;2.10;;;16.40;99.90;;;;;;5117790;28;20174;-39
2022/06/23 02:49:41;;;;;;;6.97;2.13;;;16.40;99.90;;;;;;5117073;28;20219;-40
2022/06/23 02:52:28;;;;;;;7.77;2.30;;;16.40;99.90;;;;;;5117005;28;20163;-40
2022/06/23 02:55:12;;;;;;;4.70;2.43;;;16.40;99.90;;;;;;5117188;28;20158;-40
2022/06/23 02:57:58;;;;;;;5.07;2.37;;;16.40;99.90;;;;;;5098467;28;20178;-41
2022/06/23 03:00:42;;;;;;;7.17;2.70;;;16.40;99.90;;;;;;5116723;28;20202;-39
2022/06/23 03:03:35;;;;;;;2.30;1.90;;;16.40;99.90;;;;;;5118698;28;20189;-45
2022/06/23 03:06:15;;;;;;;4.90;2.27;;;16.40;99.90;;;;;;5117395;28;20198;-44
2022/06/23 03:09:18;;;;;;;4.93;2.53;;;16.40;99.90;;;;;;5118835;28;20220;-44
2022/06/23 03:12:00;;;;;;;3.90;2.40;;;16.40;99.90;;;;;;5118334;28;20169;-44
2022/06/23 03:14:48;;;;;;;3.47;2.17;;;16.30;99.90;;;;;;5118390;28;20173;-46
2022/06/23 03:17:25;;;;;;;3.77;2.50;;;16.30;99.90;;;;;;5118129;28;20169;-44
2022/06/23 03:20:13;;;;;;;4.87;2.40;;;16.30;99.90;;;;;;5118534;28;20221;-43
2022/06/23 03:22:54;;;;;;;5.03;2.40;;;16.20;99.90;;;;;;5117959;28;20187;-44
2022/06/23 03:25:55;;;;;;;4.63;3.07;;;16.20;99.90;;;;;;5117258;28;20200;-44
2022/06/23 03:28:26;;;;;;;3.93;2.90;;;16.20;99.90;;;;;;5117819;28;20273;-45
2022/06/23 03:30:58;;;;;;;4.67;3.00;;;16.20;99.90;;;;;;5118496;28;20653;-46
2022/06/23 03:33:34;;;;;;;5.10;2.77;;;16.10;99.90;;;;;;5117737;28;20190;-44
2022/06/23 03:36:35;;;;;;;5.27;3.10;;;16.10;99.90;;;;;;5117714;28;20168;-46
2022/06/23 03:42:18;;;;;;;3.80;2.87;;;16.10;99.90;;;;;;5117147;28;20216;-44
2022/06/23 03:44:46;;;;;;;6.13;3.70;;;16.10;99.90;;;;;;5117064;28;20220;-47
2022/06/23 03:47:18;;;;;;;7.43;3.37;;;16.20;99.90;;;;;;5098649;28;20178;-44
2022/06/23 03:50:01;;;;;;;3.43;3.13;;;16.20;99.90;;;;;;5117794;28;20194;-44
2022/06/23 03:52:45;;;;;;;5.83;3.50;;;16.20;99.90;;;;;;5117067;28;20150;-44
2022/06/23 03:55:21;;;;;;;5.57;3.60;;;16.20;99.90;;;;;;5116846;28;20657;-46
2022/06/23 03:58:00;;;;;;;5.77;3.47;;;16.20;99.90;;;;;;5116271;28;20176;-43
2022/06/23 04:00:33;;;;;;;4.10;3.20;;;16.20;99.90;;;;;;5116228;28;20582;-41
2022/06/23 04:03:11;;;;;;;6.83;3.70;;;16.30;99.90;;;;;;5115799;28;20177;-40
2022/06/23 04:05:55;;;;;;;4.47;3.40;;;16.30;99.90;;;;;;5115572;28;20193;-41
2022/06/23 04:08:30;;;;;;;5.20;3.67;;;16.40;99.90;;;;;;5115533;28;20204;-41
2022/06/23 04:11:43;;;;;;;5.73;3.70;;;16.30;99.90;;;;;;5115384;28;20231;-41
2022/06/23 04:13:45;;;;;;;8.30;3.63;;;16.40;99.90;;;;;;5115303;28;20182;-43
2022/06/23 04:16:12;;;;;;;5.17;3.33;;;16.40;99.90;;;;;;5115752;28;20178;-44
2022/06/23 04:18:41;;;;;;;6.70;3.60;;;16.50;99.90;;;;;;5115695;28;20206;-45
2022/06/23 04:21:16;;;;;;;4.27;3.50;;;16.60;99.90;;;;;;5115673;28;20537;-44
2022/06/23 04:23:55;;;;;;;4.00;3.60;;;16.60;99.90;;;;;;5115635;28;20162;-41
2022/06/23 04:26:28;;;;;;;5.90;3.27;;;16.70;99.90;;;;;;5115370;28;20273;-38
2022/06/23 04:29:05;;;;;;;4.23;3.30;;;16.70;99.90;;;;;;5115115;28;20190;-39
2022/06/23 04:31:35;;;;;;;5.80;3.80;;;16.90;99.90;;;;;;5114847;28;20203;-43
2022/06/23 04:34:01;;;;;;;4.57;3.40;;;16.90;99.90;;;;;;5096460;28;20228;-40
2022/06/23 04:36:32;;;;;;;4.93;3.67;;;17.00;99.90;;;;;;5096511;28;20701;-41
2022/06/23 04:39:16;;;;;;;5.80;3.57;;;17.10;99.90;;;;;;5114800;28;20658;-42
2022/06/23 04:41:46;;;;;;;5.80;3.57;;;17.20;99.90;;;;;;5114944;28;20190;-39
2022/06/23 04:44:20;;;;;;;5.43;3.90;;;17.20;99.90;;;;;;5096338;28;20174;-41
2022/06/23 04:46:57;;;;;;;7.23;4.17;;;17.30;99.90;;;;;;5114860;28;20158;-41
2022/06/23 04:49:36;;;;;;;7.23;4.10;;;17.30;99.90;;;;;;5096249;28;20198;-42
2022/06/23 04:52:13;;;;;;;6.03;3.93;;;17.40;99.90;;;;;;5114800;28;20219;-38
2022/06/23 04:54:46;;;;;;;5.63;4.07;;;17.50;99.90;;;;;;5096214;28;20193;-38
2022/06/23 04:57:18;;;;;;;8.27;4.40;;;17.60;99.90;;;;;;5114627;28;20236;-40
2022/06/23 04:59:51;;;;;;;4.83;3.77;;;17.70;99.90;;;;;;5114597;28;20241;-40
2022/06/23 05:02:34;;;;;;;4.80;3.60;;;17.80;99.90;;;;;;5114859;28;20166;-41
2022/06/23 05:05:18;;;;;;;5.93;4.10;;;17.90;99.90;;;;;;5115158;28;20554;-43
2022/06/23 05:07:57;;;;;;;8.20;4.23;;;18.00;99.90;;;;;;5096073;28;20177;-42
2022/06/23 05:10:48;;;;;;;8.20;3.70;;;18.10;99.90;;;;;;5114219;28;20292;-41
2022/06/23 05:13:23;;;;;;;5.77;3.80;;;18.20;99.90;;;;;;5113689;28;20251;-41
2022/06/23 05:15:59;;;;;;;7.30;3.57;;;18.30;99.90;;;;;;5114124;28;20166;-41
2022/06/23 05:18:28;;;;;;;5.37;3.30;;;18.40;99.90;;;;;;5114333;28;20202;-40
2022/06/23 05:21:02;;;;;;;6.17;3.77;;;18.50;99.90;;;;;;5114496;28;20561;-40
2022/06/23 05:23:35;;;;;;;6.33;3.30;;;18.60;99.90;;;;;;5114025;28;20534;-43
2022/06/23 05:26:08;;;;;;;4.37;3.60;;;18.70;99.90;;;;;;5113977;28;20596;-40
2022/06/23 05:28:37;;;;;;;5.20;3.33;;;18.80;99.90;;;;;;5113655;28;20217;-40
2022/06/23 05:31:08;;;;;;;5.27;3.63;;;18.90;99.90;;;;;;5114123;28;20249;-40
2022/06/23 05:33:36;;;;;;;9.17;3.80;;;19.00;99.90;;;;;;5113785;28;20676;-42
2022/06/23 05:36:05;;;;;;;5.10;3.70;;;19.10;99.90;;;;;;5113879;28;20201;-40
2022/06/23 05:38:43;;;;;;;5.33;3.43;;;19.20;99.90;;;;;;5113826;28;20220;-41
2022/06/23 05:41:38;;;;;;;6.53;4.07;;;19.30;99.90;;;;;;5114198;28;20162;-43
2022/06/23 05:44:11;;;;;;;9.13;5.07;;;19.40;99.90;;;;;;5114515;28;20203;-42
2022/06/23 05:46:41;;;;;;;13.03;4.07;;;19.60;99.90;;;;;;5114523;28;20177;-41
2022/06/23 05:49:21;;;;;;;4.67;4.00;;;19.60;99.90;;;;;;5113808;28;20540;-43
2022/06/23 05:51:53;;;;;;;8.27;3.97;;;19.80;99.90;;;;;;5113851;28;20169;-43
2022/06/23 05:54:44;;;;;;;7.87;3.67;;;19.80;99.90;;;;;;5113693;28;20174;-40
2022/06/23 05:57:13;;;;;;;6.13;3.97;;;19.90;99.90;;;;;;5113618;28;20246;-39
2022/06/23 05:59:45;;;;;;;10.83;4.73;;;20.00;99.90;;;;;;5113776;28;20198;-39
2022/06/23 06:02:19;;;;;;;6.00;3.83;;;20.10;99.90;;;;;;5113569;28;20185;-41
2022/06/23 06:04:56;;;;;;;7.70;4.03;;;20.30;99.90;;;;;;5113893;28;20201;-41
2022/06/23 06:07:33;;;;;;;5.73;3.90;;;20.40;99.90;;;;;;5113534;28;20166;-40
2022/06/23 06:10:00;;;;;;;11.77;4.13;;;20.60;99.90;;;;;;5113384;28;20681;-44
2022/06/23 06:12:37;;;;;;;9.90;4.10;;;20.80;99.90;;;;;;5114345;28;20177;-44
2022/06/23 06:15:20;;;;;;;8.57;4.03;;;21.00;99.90;;;;;;5115298;28;20248;-43
2022/06/23 06:17:48;;;;;;;13.47;4.07;;;21.30;99.90;;;;;;5113595;28;20174;-41
2022/06/23 06:20:14;;;;;;;4.80;3.57;;;21.40;99.90;;;;;;5095359;28;20589;-41
2022/06/23 06:22:49;;;;;;;7.33;4.57;;;21.60;99.90;;;;;;5113672;28;20178;-41
2022/06/23 06:25:33;;;;;;;9.63;4.10;;;21.80;99.90;;;;;;5097972;28;20193;-44
2022/06/23 06:28:11;;;;;;;6.50;3.73;;;22.10;99.90;;;;;;5097071;28;20194;-44
2022/06/23 06:30:40;;;;;;;10.23;3.80;;;22.30;99.90;;;;;;5114701;28;20159;-46
2022/06/23 06:33:19;;;;;;;8.27;3.67;;;22.50;99.90;;;;;;5113420;28;20548;-43
2022/06/23 06:35:54;;;;;;;8.90;3.97;;;22.80;99.90;;;;;;5113575;28;20178;-43
2022/06/23 06:38:22;;;;;;;4.57;3.00;;;23.00;99.90;;;;;;5113579;28;20209;-43
2022/06/23 06:40:54;;;;;;;15.13;3.90;;;23.10;99.90;;;;;;5114661;28;20174;-42
2022/06/23 06:43:22;;;;;;;5.73;3.40;;;23.30;99.90;;;;;;5117630;28;20531;-42
2022/06/23 06:45:48;;;;;;;7.43;2.97;;;23.50;99.90;;;;;;5117164;28;20220;-42
2022/06/23 06:48:24;;;;;;;6.80;3.47;;;23.60;99.90;;;;;;5117180;28;20237;-43
2022/06/23 06:50:55;;;;;;;6.63;3.43;;;23.80;99.90;;;;;;5098802;28;20174;-43
2022/06/23 06:53:26;;;;;;;12.97;3.57;;;24.00;99.90;;;;;;5117117;28;20163;-44
2022/06/23 06:56:05;;;;;;;4.40;3.33;;;24.10;99.90;;;;;;5117420;28;20249;-43
2022/06/23 06:58:37;;;;;;;11.63;3.60;;;24.30;99.90;;;;;;5116842;28;20228;-43
2022/06/23 07:01:11;;;;;;;7.43;3.27;;;24.40;99.90;;;;;;5117023;28;20622;-42
2022/06/23 07:03:41;;;;;;;10.40;3.30;;;24.50;99.90;;;;;;5117608;28;20566;-45
2022/06/23 07:06:19;;;;;;;5.90;2.60;;;24.70;99.90;;;;;;5116882;28;20234;-44
2022/06/23 07:08:54;;;;;;;9.47;3.87;;;24.90;99.90;;;;;;5116860;28;20693;-45
2022/06/23 07:11:36;;;;;;;8.50;3.20;;;25.10;99.90;;;;;;5117003;28;20518;-47
2022/06/23 07:14:11;;;;;;;10.43;2.90;;;25.10;99.90;;;;;;5098280;28;20162;-45
2022/06/23 07:16:48;;;;;;;12.80;3.77;;;25.20;99.90;;;;;;5116791;28;20189;-45
2022/06/23 07:19:34;;;;;;;11.47;3.50;;;25.30;99.90;;;;;;5116540;28;20265;-46
2022/06/23 07:22:18;;;;;;;9.73;3.50;;;25.50;99.90;;;;;;5117239;28;20155;-45
2022/06/23 07:24:50;;;;;;;8.63;3.13;;;25.60;99.90;;;;;;5122760;28;20592;-43
2022/06/23 07:27:43;;;;;;;10.67;3.40;;;25.60;99.90;;;;;;5115790;28;20177;-45
2022/06/23 07:30:13;;;;;;;10.33;2.80;;;25.70;99.90;;;;;;5116356;28;20187;-45
2022/06/23 07:32:48;;;;;;;5.67;2.80;;;26.00;99.90;;;;;;5116158;28;20210;-43
2022/06/23 07:35:32;;;;;;;8.47;3.37;;;26.10;99.90;;;;;;5116068;28;20170;-44
2022/06/23 07:38:12;;;;;;;9.27;3.57;;;26.20;99.90;;;;;;5116226;28;20560;-45
2022/06/23 07:40:53;;;;;;;9.00;3.67;;;26.30;99.90;;;;;;5116253;28;20171;-43
2022/06/23 07:43:41;;;;;;;12.33;3.50;;;26.50;99.90;;;;;;5116423;28;20162;-39
2022/06/23 07:46:06;;;;;;;7.63;3.13;;;26.60;99.90;;;;;;5115934;28;20197;-39
2022/06/23 07:48:34;;;;;;;10.60;3.20;;;26.60;99.90;;;;;;5115720;28;20194;-42
2022/06/23 07:51:03;;;;;;;5.57;2.90;;;26.60;99.90;;;;;;5115638;28;20179;-42
2022/06/23 07:53:33;;;;;;;11.00;3.10;;;26.70;99.90;;;;;;5114706;28;20179;-43
2022/06/23 07:56:00;;;;;;;7.07;2.70;;;26.70;99.90;;;;;;5115627;28;20622;-43
2022/06/23 07:58:30;;;;;;;7.10;3.50;;;26.80;99.90;;;;;;5115502;28;20245;-40
2022/06/23 08:01:04;;;;;;;10.87;3.47;;;26.80;99.90;;;;;;5115822;28;20169;-42
2022/06/23 08:03:43;;;;;;;9.40;2.97;;;26.90;99.90;;;;;;5115814;28;20166;-43
2022/06/23 08:06:13;;;;;;;11.03;3.30;;;27.00;99.90;;;;;;5115671;28;20205;-42
2022/06/23 08:08:43;;;;;;;6.63;3.07;;;27.10;99.90;;;;;;5115468;28;20567;-42
2022/06/23 08:14:30;;;;;;;11.83;3.30;;;27.20;99.90;;;;;;5115650;28;20166;-41
2022/06/23 08:16:55;;;;;;;7.60;3.00;;;27.30;99.90;;;;;;5115641;28;20167;-40
2022/06/23 08:19:57;;;;;;;16.37;3.40;;;27.40;99.90;;;;;;5115465;28;20209;-40
2022/06/23 08:22:33;;;;;;;5.70;2.87;;;27.60;99.90;;;;;;5072613;28;20661;-43
2022/06/23 08:25:03;;;;;;;7.33;3.00;;;27.70;99.90;;;;;;5115367;28;20213;-40
2022/06/23 08:27:29;;;;;;;9.73;4.17;;;27.80;99.90;;;;;;5096793;28;20235;-43
2022/06/23 08:30:00;;;;;;;6.93;3.10;;;27.80;99.90;;;;;;5115237;28;20205;-40
2022/06/23 08:32:29;;;;;;;7.03;2.77;;;27.80;99.90;;;;;;5114801;28;20197;-43
2022/06/23 08:34:59;;;;;;;8.77;3.10;;;27.90;99.90;;;;;;5114923;28;20633;-41
2022/06/23 08:37:24;;;;;;;8.03;3.33;;;28.00;99.90;;;;;;5115316;28;20185;-41
2022/06/23 08:40:01;;;;;;;9.07;2.90;;;28.10;99.90;;;;;;5096574;28;20561;-41
2022/06/23 08:42:36;;;;;;;6.83;3.10;;;28.30;99.90;;;;;;5115334;28;20169;-42
2022/06/23 08:45:35;;;;;;;9.10;2.97;;;28.30;99.90;;;;;;5115014;28;20189;-42
2022/06/23 08:48:18;;;;;;;11.90;3.57;;;28.50;99.90;;;;;;5114954;28;20600;-43
2022/06/23 08:50:56;;;;;;;9.83;3.17;;;28.60;99.90;;;;;;5114978;28;20162;-40
2022/06/23 08:53:43;;;;;;;5.07;2.87;;;28.60;99.90;;;;;;5114647;28;20159;-40
2022/06/23 08:56:23;;;;;;;9.00;2.40;;;28.70;99.90;;;;;;5114586;28;20640;-42
2022/06/23 08:58:57;;;;;;;8.63;2.57;;;28.80;99.90;;;;;;5114736;28;20234;-44
2022/06/23 09:01:32;;;;;;;8.30;2.85;;;28.90;99.90;;;;;;5114403;28;20645;-41
2022/06/23 09:04:07;;;;;;;8.07;3.97;;;29.00;99.90;;;;;;5114975;28;20244;-42
2022/06/23 09:06:51;;;;;;;10.00;3.05;;;29.10;99.90;;;;;;5096159;28;20686;-41
2022/06/23 09:09:43;;;;;;;9.40;3.10;;;29.30;99.90;;;;;;5114314;28;20247;-41
2022/06/23 09:12:36;;;;;;;10.18;2.60;;;29.40;99.90;;;;;;5114294;28;20169;-43
2022/06/23 09:15:23;;;;;;;8.27;2.63;;;29.60;99.90;;;;;;5114493;28;20569;-42
2022/06/23 09:18:15;;;;;;;6.70;2.28;;;29.70;99.90;;;;;;5114721;28;20539;-41
2022/06/23 09:21:14;;;;;;;8.68;2.80;;;29.80;99.90;;;;;;5114486;28;20209;-43
2022/06/23 09:24:00;;;;;;;9.63;2.70;;;29.80;99.90;;;;;;5114679;28;20181;-41
2022/06/23 09:26:57;;;;;;;4.60;2.40;;;29.90;99.90;;;;;;5100243;28;20228;-43
2022/06/23 09:29:48;;;;;;;7.55;2.65;;;30.10;99.90;;;;;;5112791;28;20217;-41
2022/06/23 09:33:02;;;;;;;11.10;3.00;;;30.20;99.90;;;;;;5102650;28;20194;-41
2022/06/23 09:36:12;;;;;;;5.47;2.28;;;30.30;99.90;;;;;;5096443;28;20186;-44
2022/06/23 09:39:19;;;;;;;6.82;2.30;;;30.40;99.90;;;;;;5092904;28;20233;-43
2022/06/23 09:42:16;;;;;;;4.93;2.25;;;30.40;99.90;;;;;;5085160;28;20196;-42
2022/06/23 09:45:23;;;;;;;7.50;2.70;;;30.70;99.90;;;;;;5113752;28;20650;-44
2022/06/23 09:48:13;;;;;;;5.78;2.88;;;30.80;99.90;;;;;;5091263;28;20551;-40
2022/06/23 09:50:50;;;;;;;7.40;2.60;;;31.10;99.90;;;;;;5114046;28;20533;-43
2022/06/23 09:53:19;;;;;;;7.75;2.63;;;31.20;99.90;;;;;;5113945;28;20514;-41
2022/06/23 09:55:45;;;;;;;11.23;3.45;;;31.40;99.90;;;;;;5113996;28;20236;-40
2022/06/23 09:58:19;;;;;;;7.80;2.45;;;31.50;99.90;;;;;;5113898;28;20178;-42
2022/06/23 10:01:30;;;;;;;6.25;2.30;;;31.40;99.90;;;;;;5114033;28;20157;-44
2022/06/23 10:04:07;;;;;;;3.90;2.45;;;31.60;99.90;;;;;;5080274;28;20190;-43
2022/06/23 10:06:56;;;;;;;6.82;2.92;;;31.70;99.90;;;;;;5113665;28;20170;-41
2022/06/23 10:09:45;;;;;;;7.32;2.33;;;31.70;99.90;;;;;;5113832;28;20194;-41
2022/06/23 10:12:31;;;;;;;9.43;2.70;;;31.80;99.90;;;;;;5113894;28;20166;-43
2022/06/23 10:15:36;;;;;;;8.57;2.70;;;31.90;99.90;;;;;;5113116;28;20583;-42
2022/06/23 10:18:24;;;;;;;7.05;2.55;;;32.00;99.90;;;;;;5117541;28;20641;-43
2022/06/23 10:21:18;;;;;;;6.57;2.85;;;32.20;99.90;;;;;;5117871;28;20174;-43
2022/06/23 10:24:14;;;;;;;12.32;2.53;;;32.40;99.90;;;;;;5118486;28;20538;-43
2022/06/23 10:26:58;;;;;;;10.43;3.03;;;32.40;99.90;;;;;;5117845;28;20162;-42
2022/06/23 10:29:58;;;;;;;5.82;2.38;;;32.50;99.90;;;;;;5099048;28;20197;-43
2022/06/23 10:32:35;;;;;;;6.10;2.97;;;32.60;99.90;;;;;;5099078;28;20182;-43
2022/06/23 10:35:23;;;;;;;7.50;3.13;;;32.70;99.90;;;;;;5117329;28;20525;-45
2022/06/23 10:38:13;;;;;;;7.38;2.55;;;32.70;99.90;;;;;;5117257;28;20295;-41
2022/06/23 10:40:50;;;;;;;9.98;2.88;;;32.70;99.90;;;;;;5117526;28;20159;-40
2022/06/23 10:43:37;;;;;;;9.13;2.50;;;32.70;99.90;;;;;;5117442;28;20650;-42
2022/06/23 10:46:31;;;;;;;10.68;2.88;;;32.80;99.90;;;;;;5117018;28;20275;-42
2022/06/23 10:49:36;;;;;;;7.75;2.55;;;33.00;99.90;;;;;;5098684;28;20198;-42
2022/06/23 10:52:37;;;;;;;8.35;2.60;;;32.90;99.90;;;;;;5117275;28;20163;-42
2022/06/23 10:55:10;;;;;;;5.75;3.03;;;33.00;99.90;;;;;;5105901;28;20193;-42
2022/06/23 10:57:53;;;;;;;7.40;2.90;;;33.00;99.90;;;;;;5117151;28;20178;-44
2022/06/23 11:01:00;;;;;;;7.78;2.85;;;33.10;99.90;;;;;;5116709;28;20197;-43
2022/06/23 11:03:47;;;;;;;6.68;2.60;;;33.10;99.90;;;;;;5085323;28;20190;-42
2022/06/23 11:06:24;;;;;;;8.45;2.90;;;33.20;99.90;;;;;;5117209;28;20190;-43
2022/06/23 11:09:19;;;;;;;9.13;3.00;;;33.30;99.90;;;;;;5117650;28;20556;-42
2022/06/23 11:11:59;;;;;;;8.57;2.80;;;33.50;99.90;;;;;;5117261;28;20162;-43
2022/06/23 11:14:35;;;;;;;11.88;3.13;;;33.50;99.90;;;;;;5116941;28;20158;-43
2022/06/23 11:17:15;;;;;;;7.60;2.67;;;33.50;99.90;;;;;;5116619;28;20162;-42
2022/06/23 11:20:12;;;;;;;7.07;2.85;;;33.60;99.90;;;;;;5116830;28;20198;-40
2022/06/23 11:23:14;;;;;;;10.95;2.70;;;33.50;99.90;;;;;;5116467;28;20205;-44
2022/06/23 11:25:48;;;;;;;9.35;2.88;;;33.30;99.90;;;;;;5116580;28;20194;-43
2022/06/23 11:28:23;;;;;;;6.45;2.50;;;33.20;99.90;;;;;;5114998;28;20637;-43
2022/06/23 11:31:01;;;;;;;5.63;2.50;;;33.30;99.90;;;;;;5116546;28;20602;-43
2022/06/23 11:33:44;;;;;;;11.20;2.67;;;33.50;99.90;;;;;;5116095;28;20653;-40
2022/06/23 11:36:39;;;;;;;13.15;2.55;;;33.60;99.90;;;;;;5117167;28;20571;-41
2022/06/23 11:39:20;;;;;;;5.60;2.28;;;33.90;99.90;;;;;;5116298;28;20202;-44
2022/06/23 11:42:07;;;;;;;7.03;2.22;;;34.00;99.90;;;;;;5116577;28;20158;-41
2022/06/23 11:45:12;;;;;;;10.35;2.42;;;34.10;99.90;;;;;;5115921;28;20222;-43
2022/06/23 11:48:02;;;;;;;7.50;2.38;;;34.20;99.90;;;;;;5097318;28;20649;-43
2022/06/23 11:50:49;;;;;;;9.07;2.33;;;34.40;99.90;;;;;;5116452;28;20163;-45
2022/06/23 11:53:42;;;;;;;7.70;2.03;;;34.60;99.90;;;;;;5116105;28;20162;-43
2022/06/23 11:56:20;;;;;;;8.18;2.10;;;34.70;99.90;;;;;;5097490;28;20185;-43
2022/06/23 11:59:00;;;;;;;8.43;2.40;;;34.70;99.90;;;;;;5115886;28;20214;-42
2022/06/23 12:01:28;;;;;;;9.05;2.20;;;34.70;99.90;;;;;;5115621;28;20652;-44
2022/06/23 12:04:12;;;;;;;6.05;2.28;;;34.60;99.90;;;;;;5115534;28;20213;-42
2022/06/23 12:06:50;;;;;;;11.98;2.42;;;34.60;99.90;;;;;;5115799;28;20197;-42
2022/06/23 12:09:19;;;;;;;6.53;2.47;;;34.70;99.80;;;;;;5115430;28;20198;-42
2022/06/23 12:11:45;;;;;;;10.38;2.20;;;34.80;99.30;;;;;;5115691;28;20178;-42
2022/06/23 12:14:13;;;;;;;5.10;1.92;;;34.70;99.50;;;;;;5115593;28;20186;-39
2022/06/23 12:16:45;;;;;;;10.73;2.42;;;34.70;99.90;;;;;;5115341;28;20209;-41
2022/06/23 12:19:15;;;;;;;7.15;2.25;;;34.80;99.90;;;;;;5115586;28;20213;-42
2022/06/23 12:22:10;;;;;;;7.25;2.40;;;35.00;99.90;;;;;;5115809;28;20151;-43
2022/06/23 12:25:18;;;;;;;5.10;2.10;;;35.20;99.90;;;;;;5115375;28;20194;-43
2022/06/23 12:28:08;;;;;;;5.22;1.85;;;35.30;99.90;;;;;;5114572;28;20194;-42
2022/06/23 12:30:43;;;;;;;7.75;2.53;;;35.50;99.90;;;;;;5115569;28;20246;-41
2022/06/23 12:33:50;;;;;;;8.77;2.10;;;35.50;99.50;;;;;;5115084;28;20230;-42
2022/06/23 12:36:53;;;;;;;9.98;2.50;;;35.50;99.20;;;;;;5104222;28;20666;-42
2022/06/23 12:39:34;;;;;;;6.97;2.08;;;35.50;99.80;;;;;;5114599;28;20197;-42
2022/06/23 12:42:06;;;;;;;6.07;2.00;;;35.60;98.30;;;;;;5114843;28;20167;-43
2022/06/23 12:44:44;;;;;;;10.90;2.15;;;35.60;97.70;;;;;;5114800;28;20174;-42
2022/06/23 12:47:15;;;;;;;9.25;2.95;;;35.70;98.90;;;;;;5114741;28;20173;-43
2022/06/23 12:50:10;;;;;;;9.02;3.10;;;35.60;98.80;;;;;;5114736;28;20281;-43
2022/06/23 12:53:12;;;;;;;7.13;2.13;;;35.70;98.60;;;;;;5114864;28;20169;-42
2022/06/23 12:55:53;;;;;;;11.50;2.80;;;35.70;97.60;;;;;;5114530;28;20261;-41
2022/06/23 12:58:37;;;;;;;7.43;2.10;;;35.80;98.70;;;;;;5114881;28;20167;-41
2022/06/23 13:01:10;;;;;;;7.13;2.20;;;36.00;99.80;;;;;;5115047;28;20245;-42
2022/06/23 13:03:59;;;;;;;9.05;2.28;;;36.20;99.10;;;;;;5114744;28;20569;-44
2022/06/23 13:06:45;;;;;;;6.22;2.45;;;36.30;99.40;;;;;;5114636;28;20194;-42
2022/06/23 13:09:48;;;;;;;8.15;2.50;;;36.40;97.90;;;;;;5114326;28;20186;-42
2022/06/23 13:12:22;;;;;;;7.50;2.50;;;36.50;95.90;;;;;;5114497;28;20664;-43
2022/06/23 13:15:04;;;;;;;7.75;2.20;;;36.40;96.50;;;;;;5096105;28;20166;-43
2022/06/23 13:17:29;;;;;;;14.13;2.50;;;36.50;93.90;;;;;;5114259;28;20211;-43
2022/06/23 13:20:22;;;;;;;7.55;1.83;;;36.40;97.50;;;;;;5114429;28;20225;-44
2022/06/23 13:22:58;;;;;;;7.45;2.17;;;36.70;98.40;;;;;;5114271;28;20170;-42
2022/06/23 13:25:32;;;;;;;5.25;1.85;;;36.70;96.40;;;;;;5114288;28;20202;-43
2022/06/23 13:27:58;;;;;;;4.55;2.03;;;36.80;98.00;;;;;;5114281;28;20186;-43
2022/06/23 13:30:27;;;;;;;3.83;2.20;;;36.90;97.80;;;;;;5114226;28;20237;-43
2022/06/23 13:32:59;;;;;;;6.57;2.20;;;37.00;97.90;;;;;;5114083;28;20196;-43
2022/06/23 13:35:38;;;;;;;9.05;2.60;;;37.10;93.50;;;;;;5114425;28;20551;-43
2022/06/23 13:38:45;;;;;;;6.00;2.00;;;37.30;96.30;;;;;;5114186;28;20162;-43
2022/06/23 13:41:51;;;;;;;6.65;2.10;;;37.20;95.60;;;;;;5113329;28;20601;-41
2022/06/23 13:44:44;;;;;;;8.80;2.03;;;37.30;95.40;;;;;;5073353;28;20326;-42
2022/06/23 13:47:16;;;;;;;6.85;2.40;;;37.40;91.20;;;;;;5114177;28;20163;-43
2022/06/23 13:49:47;;;;;;;7.85;1.73;;;37.40;95.60;;;;;;5113366;28;20186;-43
2022/06/23 13:52:31;;;;;;;8.40;2.15;;;37.40;95.10;;;;;;5113767;28;20181;-42
2022/06/23 13:55:31;;;;;;;3.85;2.17;;;37.30;95.30;;;;;;5114024;28;20166;-43
2022/06/23 13:58:10;;;;;;;6.18;2.08;;;37.30;94.50;;;;;;5113963;28;20158;-42
2022/06/23 14:00:52;;;;;;;6.70;2.10;;;37.50;92.80;;;;;;5113971;28;20685;-43